Orbital elements of BREEZE-M DEB
| Launched | 7 November 2006 |
| Flight ended | – |
| Launch site | Tyuratam Missile and Space Center, Kazakhstan (Also known as Baikonur Cosmodrome) |
| Owner | Commonwealth of Independent States (former USSR) |
| NORAD ID | 29528 |
| Alternative names |
TANK |
| Date fetched |
Epoch osculation |
Inc. [°] |
Ecc. | RA asc node [hr] |
Arg Peri. [°] |
Mean anom [°] |
Mean motion [rev/day] |
Abs. mag |
| Date fetched |
Epoch osculation |
Inc. [°] |
Ecc. | RA asc node [hr] |
Arg Peri. [°] |
Mean anom [°] |
Mean motion [rev/day] |
Abs. mag |
| 2026 May 06 17:57 | 2026 May 03 21:37:51 | 51.2954 | 0.59822 | 17.4810 | 120.8764 | 13.5304 | 3.64302 | 4.243 |
| 2026 May 05 17:57 | 2026 May 03 21:37:51 | 51.2954 | 0.59822 | 17.4810 | 120.8764 | 13.5304 | 3.64302 | 4.243 |
| 2026 May 04 17:57 | 2026 Apr 30 14:11:10 | 51.2968 | 0.59828 | 17.5725 | 119.8277 | 13.5304 | 3.64302 | 4.243 |
| 2026 May 03 17:57 | 2026 Apr 30 14:11:10 | 51.2968 | 0.59828 | 17.5725 | 119.8277 | 13.5304 | 3.64302 | 4.243 |
| 2026 May 02 17:57 | 2026 Apr 30 14:11:10 | 51.2968 | 0.59828 | 17.5725 | 119.8277 | 13.5304 | 3.64302 | 4.243 |
| 2026 May 01 17:56 | 2026 Apr 30 14:11:10 | 51.2968 | 0.59828 | 17.5725 | 119.8277 | 13.5304 | 3.64302 | 4.243 |
| 2026 Apr 30 17:56 | 2026 Apr 30 14:11:10 | 51.2968 | 0.59828 | 17.5725 | 119.8277 | 13.5304 | 3.64302 | 4.243 |
| 2026 Apr 29 17:57 | 2026 Apr 22 22:05:06 | 51.2990 | 0.59846 | 17.7848 | 117.3925 | 13.5304 | 3.64302 | 4.243 |
| 2026 Apr 28 17:56 | 2026 Apr 22 22:05:06 | 51.2990 | 0.59846 | 17.7848 | 117.3925 | 13.5304 | 3.64302 | 4.243 |
| 2026 Apr 27 17:58 | 2026 Apr 22 22:05:06 | 51.2990 | 0.59846 | 17.7848 | 117.3925 | 13.5304 | 3.64302 | 4.243 |
| 2026 Apr 26 17:58 | 2026 Apr 22 22:05:06 | 51.2990 | 0.59846 | 17.7848 | 117.3925 | 13.5304 | 3.64302 | 4.243 |
| 2026 Apr 25 17:58 | 2026 Apr 22 22:05:06 | 51.2990 | 0.59846 | 17.7848 | 117.3925 | 13.5304 | 3.64302 | 4.243 |
| 2026 Apr 24 17:59 | 2026 Apr 22 22:05:06 | 51.2990 | 0.59846 | 17.7848 | 117.3925 | 13.5304 | 3.64302 | 4.243 |
| 2026 Apr 23 17:57 | 2026 Apr 15 05:38:11 | 51.3016 | 0.59863 | 17.9977 | 114.9485 | 13.5304 | 3.64302 | 4.243 |
| 2026 Apr 22 17:57 | 2026 Apr 15 05:38:11 | 51.3016 | 0.59863 | 17.9977 | 114.9485 | 13.5304 | 3.64302 | 4.243 |
| 2026 Apr 21 17:57 | 2026 Apr 15 05:38:11 | 51.3016 | 0.59863 | 17.9977 | 114.9485 | 13.5304 | 3.64302 | 4.243 |
| 2026 Apr 20 17:57 | 2026 Apr 15 05:38:11 | 51.3016 | 0.59863 | 17.9977 | 114.9485 | 13.5304 | 3.64302 | 4.243 |
| 2026 Apr 19 17:58 | 2026 Apr 15 05:38:11 | 51.3016 | 0.59863 | 17.9977 | 114.9485 | 13.5304 | 3.64302 | 4.243 |
| 2026 Apr 18 17:56 | 2026 Apr 13 00:10:45 | 51.3022 | 0.59868 | 18.0594 | 114.2402 | 13.5304 | 3.64302 | 4.243 |
| 2026 Apr 16 17:57 | 2026 Apr 13 00:10:45 | 51.3022 | 0.59868 | 18.0594 | 114.2402 | 13.5304 | 3.64302 | 4.243 |
| 2026 Apr 14 17:57 | 2026 Apr 13 00:10:45 | 51.3022 | 0.59868 | 18.0594 | 114.2402 | 13.5304 | 3.64302 | 4.243 |
| 2026 Apr 13 17:57 | 2026 Apr 13 00:10:45 | 51.3022 | 0.59868 | 18.0594 | 114.2402 | 13.5304 | 3.64302 | 4.243 |
| 2026 Apr 12 17:57 | 2026 Apr 08 15:09:30 | 51.3027 | 0.59877 | 18.1807 | 112.8495 | 13.5304 | 3.64302 | 4.243 |
| 2026 Apr 11 17:57 | 2026 Apr 08 15:09:30 | 51.3027 | 0.59877 | 18.1807 | 112.8495 | 13.5304 | 3.64302 | 4.243 |
| 2026 Apr 10 17:58 | 2026 Apr 08 15:09:30 | 51.3027 | 0.59877 | 18.1807 | 112.8495 | 13.5304 | 3.64302 | 4.243 |
| 2026 Apr 09 18:01 | 2026 Apr 08 15:09:30 | 51.3027 | 0.59877 | 18.1807 | 112.8495 | 13.5304 | 3.64302 | 4.243 |